Time;durP1;ratioP1;P1;durP2;ratioP2;P2;SDS_P1;SDS_P2;PMS_P1;PMS_P2;Temp;Humidity;BMP_temperature;BMP_pressure;BME280_temperature;BME280_humidity;BME280_pressure;Samples;Min_cycle;Max_cycle;Signal;HPM_P1;HPM_P2
2021/11/04 00:01:09;;;;;;;114.35;28.77;;;5.90;99.90;;;;;;5046525;28;20059;-88
2021/11/04 00:03:35;;;;;;;104.60;29.23;;;5.80;99.90;;;;;;5031673;28;20033;-84
2021/11/04 00:06:01;;;;;;;91.53;29.02;;;5.80;99.90;;;;;;5031122;28;20079;-83
2021/11/04 00:08:26;;;;;;;89.55;29.55;;;5.90;99.90;;;;;;5030366;28;20061;-86
2021/11/04 00:10:53;;;;;;;87.13;27.13;;;5.90;99.90;;;;;;5028013;28;20064;-85
2021/11/04 00:13:19;;;;;;;91.60;27.67;;;5.80;99.90;;;;;;5039685;28;20060;-83
2021/11/04 00:15:45;;;;;;;89.13;26.98;;;5.80;99.90;;;;;;5026712;28;20029;-85
2021/11/04 00:18:10;;;;;;;96.22;26.77;;;5.80;99.90;;;;;;5028618;28;20370;-85
2021/11/04 00:20:37;;;;;;;77.68;26.83;;;5.90;99.90;;;;;;5031084;28;20037;-84
2021/11/04 00:23:03;;;;;;;83.72;29.20;;;5.80;99.90;;;;;;5028471;28;20397;-84
2021/11/04 00:25:30;;;;;;;84.28;27.70;;;5.70;99.90;;;;;;5047391;28;20033;-85
2021/11/04 00:27:55;;;;;;;85.45;26.98;;;5.80;99.90;;;;;;5045346;28;20128;-83
2021/11/04 00:30:21;;;;;;;64.65;23.85;;;5.80;99.90;;;;;;5029646;28;20037;-84
2021/11/04 00:32:49;;;;;;;75.65;26.08;;;5.70;99.90;;;;;;5043410;28;20063;-84
2021/11/04 00:35:15;;;;;;;73.05;25.55;;;5.70;99.90;;;;;;5024577;28;20042;-82
2021/11/04 00:37:42;;;;;;;72.60;26.35;;;5.70;99.90;;;;;;5026060;28;20037;-82
2021/11/04 00:40:09;;;;;;;81.97;30.15;;;5.70;99.90;;;;;;5025419;28;20036;-84
2021/11/04 00:42:34;;;;;;;67.68;25.40;;;5.70;99.90;;;;;;5030605;28;20040;-85
2021/11/04 00:45:00;;;;;;;86.40;30.17;;;5.60;99.90;;;;;;5033171;28;20068;-84
2021/11/04 00:47:26;;;;;;;67.07;25.73;;;5.60;99.90;;;;;;5030348;28;20078;-83
2021/11/04 00:49:51;;;;;;;70.80;25.40;;;5.50;99.90;;;;;;5028034;28;20033;-83
2021/11/04 00:52:17;;;;;;;63.00;23.08;;;5.50;99.90;;;;;;5043795;28;20057;-84
2021/11/04 00:54:43;;;;;;;66.00;24.63;;;5.50;99.90;;;;;;5038434;28;20029;-85
2021/11/04 00:57:08;;;;;;;65.47;22.55;;;5.50;99.90;;;;;;5027955;28;20040;-84
2021/11/04 00:59:34;;;;;;;66.40;20.27;;;5.50;99.90;;;;;;5030663;28;20067;-83
2021/11/04 01:01:59;;;;;;;64.10;20.52;;;5.60;99.90;;;;;;5030241;28;20059;-83
2021/11/04 01:04:25;;;;;;;79.60;21.40;;;5.60;99.90;;;;;;5045718;28;20103;-83
2021/11/04 01:06:51;;;;;;;74.50;20.65;;;5.50;99.90;;;;;;5041329;28;20041;-85
2021/11/04 01:09:17;;;;;;;62.42;21.23;;;5.50;99.90;;;;;;5030369;28;20040;-82
2021/11/04 01:11:42;;;;;;;98.20;23.77;;;5.50;99.90;;;;;;5029796;28;20048;-84
2021/11/04 01:14:08;;;;;;;93.45;22.30;;;5.50;99.90;;;;;;5028404;28;20060;-83
2021/11/04 01:16:34;;;;;;;127.63;24.08;;;5.40;99.90;;;;;;5029188;28;20105;-84
2021/11/04 01:19:00;;;;;;;57.28;22.67;;;5.30;99.90;;;;;;5042848;28;20044;-84
2021/11/04 01:21:25;;;;;;;56.95;23.20;;;5.30;99.90;;;;;;5029793;28;20041;-84
2021/11/04 01:23:51;;;;;;;84.57;25.40;;;5.20;99.90;;;;;;5047596;28;20068;-82
2021/11/04 01:26:16;;;;;;;54.28;21.60;;;5.20;99.90;;;;;;5034075;28;20041;-84
2021/11/04 01:28:42;;;;;;;66.72;22.08;;;5.20;99.90;;;;;;5033917;28;20083;-82
2021/11/04 01:31:08;;;;;;;59.25;23.02;;;5.20;99.90;;;;;;5031982;28;20049;-84
2021/11/04 01:33:33;;;;;;;56.38;22.88;;;5.20;99.90;;;;;;5047592;28;20036;-82
2021/11/04 01:35:59;;;;;;;52.50;23.35;;;5.10;99.90;;;;;;5033237;28;20452;-83
2021/11/04 01:38:25;;;;;;;71.43;20.60;;;5.10;99.90;;;;;;5034162;28;20048;-82
2021/11/04 01:40:50;;;;;;;44.60;17.42;;;5.10;99.90;;;;;;5033884;28;20060;-82
2021/11/04 01:43:16;;;;;;;48.22;20.77;;;5.10;99.90;;;;;;5031509;28;20029;-83
2021/11/04 01:45:42;;;;;;;95.18;23.70;;;5.00;99.90;;;;;;5031119;28;20044;-83
2021/11/04 01:48:08;;;;;;;56.45;21.52;;;4.90;99.90;;;;;;5034116;28;20064;-82
2021/11/04 01:50:35;;;;;;;64.20;21.45;;;5.00;99.90;;;;;;5032320;28;20071;-82
2021/11/04 01:53:01;;;;;;;61.53;22.25;;;5.00;99.90;;;;;;5031340;28;20063;-83
2021/11/04 01:55:27;;;;;;;63.10;20.30;;;4.90;99.90;;;;;;5033786;28;20037;-82
2021/11/04 01:57:55;;;;;;;36.85;16.25;;;4.90;99.90;;;;;;5033743;28;20072;-82
2021/11/04 02:00:24;;;;;;;41.22;14.80;;;4.80;99.90;;;;;;5030450;28;20045;-82
2021/11/04 02:03:06;;;;;;;61.47;16.35;;;4.80;99.90;;;;;;5032415;28;20099;-82
2021/11/04 02:05:44;;;;;;;49.10;14.95;;;4.80;99.90;;;;;;5047204;28;20455;-83
2021/11/04 02:08:17;;;;;;;38.20;13.50;;;4.90;99.90;;;;;;5049143;28;20041;-82
2021/11/04 02:10:50;;;;;;;41.72;13.23;;;4.80;99.90;;;;;;5032482;28;20056;-82
2021/11/04 02:13:22;;;;;;;41.35;13.30;;;4.80;99.90;;;;;;5027587;28;20037;-82
2021/11/04 02:15:53;;;;;;;32.20;12.10;;;4.80;99.90;;;;;;5033541;28;20041;-82
2021/11/04 02:18:21;;;;;;;33.47;12.95;;;4.90;99.90;;;;;;5049192;28;20035;-82
2021/11/04 02:20:53;;;;;;;43.83;15.90;;;4.70;99.90;;;;;;5033702;28;20048;-83
2021/11/04 02:23:41;;;;;;;43.92;16.33;;;4.70;99.90;;;;;;5046421;28;20073;-82
2021/11/04 02:26:08;;;;;;;43.78;14.20;;;4.70;99.90;;;;;;5040776;28;20026;-83
2021/11/04 02:28:37;;;;;;;32.72;12.07;;;4.70;99.90;;;;;;5028002;28;20384;-83
2021/11/04 02:31:05;;;;;;;40.05;13.07;;;4.60;99.90;;;;;;5030725;28;20048;-83
2021/11/04 02:33:31;;;;;;;40.60;13.75;;;4.60;99.90;;;;;;5032872;28;20037;-83
2021/11/04 02:35:58;;;;;;;44.47;11.90;;;4.60;99.90;;;;;;5032564;28;20067;-83
2021/11/04 02:38:28;;;;;;;26.05;9.77;;;4.60;99.90;;;;;;5042043;28;20120;-82
2021/11/04 02:40:54;;;;;;;26.42;9.90;;;4.70;99.90;;;;;;5029840;28;20660;-82
2021/11/04 02:43:20;;;;;;;26.92;7.15;;;4.80;99.90;;;;;;5043231;28;20120;-83
2021/11/04 02:45:47;;;;;;;29.35;9.20;;;4.80;99.90;;;;;;5032621;28;20041;-83
2021/11/04 02:48:19;;;;;;;33.92;12.10;;;4.60;99.90;;;;;;5029730;28;20101;-83
2021/11/04 02:50:46;;;;;;;31.27;11.13;;;4.60;99.90;;;;;;5031418;28;20045;-83
2021/11/04 02:53:14;;;;;;;47.60;12.27;;;4.50;99.90;;;;;;5032623;28;20087;-83
2021/11/04 02:55:41;;;;;;;38.70;9.13;;;4.40;99.90;;;;;;5030195;28;20041;-83
2021/11/04 02:58:09;;;;;;;36.53;8.82;;;4.50;99.90;;;;;;5032396;28;20029;-82
2021/11/04 03:00:36;;;;;;;24.10;7.97;;;4.50;99.90;;;;;;5024917;28;20076;-83
2021/11/04 03:03:02;;;;;;;20.85;6.80;;;4.60;99.90;;;;;;5029497;28;20040;-83
2021/11/04 03:05:28;;;;;;;17.45;6.22;;;4.70;99.90;;;;;;5044175;28;21126;-83
2021/11/04 03:07:54;;;;;;;18.48;5.28;;;4.80;99.90;;;;;;5029387;28;20037;-82
2021/11/04 03:10:21;;;;;;;24.08;5.50;;;4.80;99.90;;;;;;5030203;28;20052;-83
2021/11/04 03:12:46;;;;;;;17.30;5.53;;;4.80;99.90;;;;;;5032474;28;20037;-82
2021/11/04 03:15:16;;;;;;;20.90;6.32;;;4.80;99.90;;;;;;5032244;28;20390;-83
2021/11/04 03:17:42;;;;;;;21.33;6.00;;;4.80;99.90;;;;;;5026725;28;20466;-83
2021/11/04 03:20:09;;;;;;;22.85;6.93;;;4.90;99.90;;;;;;5029289;28;20043;-83
2021/11/04 03:22:36;;;;;;;25.48;6.53;;;4.90;99.90;;;;;;5042834;28;20037;-83
2021/11/04 03:25:02;;;;;;;15.85;4.68;;;4.90;99.90;;;;;;5043502;28;20033;-83
2021/11/04 03:27:29;;;;;;;23.80;6.55;;;5.00;99.90;;;;;;5028934;28;20097;-82
2021/11/04 03:29:56;;;;;;;20.30;5.30;;;4.90;99.90;;;;;;5031096;28;20519;-83
2021/11/04 03:32:23;;;;;;;18.05;5.75;;;4.90;99.90;;;;;;5031693;28;20052;-83
2021/11/04 03:34:50;;;;;;;16.80;5.60;;;4.90;99.90;;;;;;5032156;28;20105;-83
2021/11/04 03:37:18;;;;;;;17.63;6.13;;;4.90;99.90;;;;;;5041494;28;20073;-82
2021/11/04 03:39:44;;;;;;;18.30;6.05;;;4.80;99.90;;;;;;5044223;28;20036;-82
2021/11/04 03:42:11;;;;;;;29.05;7.75;;;4.70;99.90;;;;;;5030640;28;20033;-83
2021/11/04 03:44:40;;;;;;;23.13;6.60;;;4.60;99.90;;;;;;5031438;28;20096;-82
2021/11/04 03:47:07;;;;;;;25.92;6.60;;;4.70;99.90;;;;;;5031082;28;20029;-82
2021/11/04 03:49:33;;;;;;;21.45;5.72;;;4.70;99.90;;;;;;5039049;28;20101;-82
2021/11/04 03:51:59;;;;;;;17.15;5.70;;;4.70;99.90;;;;;;5047076;28;20056;-83
2021/11/04 03:54:26;;;;;;;21.67;5.60;;;4.80;99.90;;;;;;5057553;28;20034;-82
2021/11/04 03:56:53;;;;;;;18.80;5.38;;;4.80;99.90;;;;;;5025817;28;20033;-82
2021/11/04 03:59:20;;;;;;;20.75;5.13;;;4.80;99.90;;;;;;5031284;28;20124;-82
2021/11/04 04:01:46;;;;;;;18.58;5.97;;;4.80;99.90;;;;;;5028616;28;20546;-82
2021/11/04 04:04:12;;;;;;;17.77;5.43;;;4.80;99.90;;;;;;5027753;28;20029;-82
2021/11/04 04:06:37;;;;;;;23.20;4.90;;;4.80;99.90;;;;;;5031646;28;20082;-82
2021/11/04 04:09:06;;;;;;;17.98;5.07;;;4.80;99.90;;;;;;5031445;28;20053;-82
2021/11/04 04:11:32;;;;;;;18.00;5.47;;;4.80;99.90;;;;;;5028813;28;20055;-82
2021/11/04 04:13:57;;;;;;;23.38;6.15;;;4.70;99.90;;;;;;5028077;28;20032;-82
2021/11/04 04:16:25;;;;;;;23.63;6.55;;;4.80;99.90;;;;;;5040899;28;20052;-82
2021/11/04 04:18:51;;;;;;;31.20;8.00;;;4.80;99.90;;;;;;5031329;28;20036;-82
2021/11/04 04:21:17;;;;;;;27.80;6.43;;;4.80;99.90;;;;;;5028401;28;20056;-82
2021/11/04 04:23:43;;;;;;;28.02;8.02;;;4.80;99.90;;;;;;5028217;28;20033;-82
2021/11/04 04:26:09;;;;;;;19.67;5.53;;;4.80;99.90;;;;;;5041771;28;20100;-82
2021/11/04 04:28:35;;;;;;;21.05;6.05;;;4.90;99.90;;;;;;5042919;28;20140;-82
2021/11/04 04:31:00;;;;;;;24.67;7.07;;;4.90;99.90;;;;;;5028031;28;20044;-82
2021/11/04 04:33:26;;;;;;;24.33;6.72;;;5.00;99.90;;;;;;5030952;28;20048;-82
2021/11/04 04:35:52;;;;;;;27.92;6.93;;;5.00;99.90;;;;;;5030893;28;20041;-82
2021/11/04 04:38:18;;;;;;;20.80;5.90;;;5.10;99.90;;;;;;5027576;28;20041;-82
2021/11/04 04:40:44;;;;;;;19.73;6.47;;;5.00;99.90;;;;;;5027799;28;20467;-82
2021/11/04 04:43:10;;;;;;;25.58;6.57;;;5.10;99.90;;;;;;5029887;28;20041;-82
2021/11/04 04:45:36;;;;;;;32.33;6.47;;;5.10;99.90;;;;;;5028834;28;20055;-82
2021/11/04 04:48:03;;;;;;;29.33;7.05;;;5.00;99.90;;;;;;5030779;28;20044;-81
2021/11/04 04:50:28;;;;;;;23.35;6.30;;;5.00;99.90;;;;;;5026635;28;20037;-82
2021/11/04 04:52:54;;;;;;;35.53;9.52;;;5.00;99.90;;;;;;5027630;28;20521;-82
2021/11/04 04:55:20;;;;;;;28.35;8.70;;;5.00;99.90;;;;;;5044204;28;20071;-82
2021/11/04 04:57:45;;;;;;;53.50;12.18;;;5.00;99.90;;;;;;5030652;28;20040;-82
2021/11/04 05:00:14;;;;;;;37.65;11.30;;;5.00;99.90;;;;;;5027935;28;20055;-82
2021/11/04 05:02:41;;;;;;;27.55;9.63;;;5.10;99.90;;;;;;5043951;28;20036;-82
2021/11/04 05:05:08;;;;;;;27.42;8.95;;;5.20;99.90;;;;;;5025389;28;20048;-83
2021/11/04 05:07:34;;;;;;;39.45;10.70;;;5.20;99.90;;;;;;5030047;28;20039;-82
2021/11/04 05:10:01;;;;;;;31.40;10.90;;;5.20;99.90;;;;;;5030253;28;20101;-82
2021/11/04 05:12:27;;;;;;;39.80;15.23;;;5.30;99.90;;;;;;5042460;28;20041;-83
2021/11/04 05:14:53;;;;;;;44.38;16.20;;;5.30;99.90;;;;;;5042248;28;20482;-82
2021/11/04 05:17:18;;;;;;;51.97;19.38;;;5.40;99.90;;;;;;5025689;28;20041;-82
2021/11/04 05:19:44;;;;;;;45.97;20.65;;;5.40;99.90;;;;;;5032699;28;20033;-82
2021/11/04 05:22:09;;;;;;;47.55;20.60;;;5.40;99.90;;;;;;5041467;28;20048;-82
2021/11/04 05:24:35;;;;;;;46.80;19.40;;;5.40;99.90;;;;;;5041514;28;20037;-83
2021/11/04 05:27:05;;;;;;;52.40;21.67;;;5.40;99.90;;;;;;5042809;28;20037;-83
2021/11/04 05:29:32;;;;;;;49.25;19.77;;;5.50;99.90;;;;;;5027831;28;20034;-83
2021/11/04 05:31:59;;;;;;;42.58;17.27;;;5.50;99.90;;;;;;5040520;28;20052;-84
2021/11/04 05:34:25;;;;;;;48.88;20.88;;;5.50;99.90;;;;;;5038741;28;20038;-83
2021/11/04 05:36:51;;;;;;;41.10;18.38;;;5.50;99.90;;;;;;5043909;28;20048;-82
2021/11/04 05:39:16;;;;;;;40.35;18.40;;;5.50;99.90;;;;;;5031484;28;20033;-82
2021/11/04 05:41:42;;;;;;;39.88;16.58;;;5.60;99.90;;;;;;5048154;28;20124;-82
2021/11/04 05:44:08;;;;;;;40.95;16.58;;;5.60;99.90;;;;;;5045529;28;20119;-82
2021/11/04 05:46:34;;;;;;;39.58;16.95;;;5.60;99.90;;;;;;5041713;28;20383;-83
2021/11/04 05:49:00;;;;;;;37.85;16.45;;;5.60;99.90;;;;;;5027479;28;20116;-83
2021/11/04 05:51:25;;;;;;;37.20;17.58;;;5.60;99.90;;;;;;5029223;28;20397;-82
2021/11/04 05:53:51;;;;;;;47.25;20.48;;;5.70;99.90;;;;;;5028275;28;20033;-83
2021/11/04 05:56:16;;;;;;;40.03;19.30;;;5.70;99.90;;;;;;5030249;28;20087;-83
2021/11/04 05:58:42;;;;;;;40.72;18.58;;;5.70;99.90;;;;;;5041216;28;20029;-83
2021/11/04 06:01:08;;;;;;;45.97;20.45;;;5.70;99.90;;;;;;5027410;28;20056;-83
2021/11/04 06:03:33;;;;;;;45.33;21.38;;;5.70;99.90;;;;;;5029933;28;20034;-82
2021/11/04 06:05:59;;;;;;;48.10;22.55;;;5.70;99.90;;;;;;5042465;28;20036;-83
2021/11/04 06:08:25;;;;;;;43.40;18.38;;;5.70;99.90;;;;;;5044657;28;20029;-82
2021/11/04 06:10:50;;;;;;;50.53;21.23;;;5.70;99.90;;;;;;5033464;28;20481;-81
2021/11/04 06:13:16;;;;;;;39.63;18.02;;;5.70;99.90;;;;;;5044565;28;20042;-82
2021/11/04 06:15:42;;;;;;;38.90;18.27;;;5.70;99.90;;;;;;5048824;28;20029;-82
2021/11/04 06:18:07;;;;;;;42.50;19.48;;;5.70;99.90;;;;;;5033480;28;20540;-82
2021/11/04 06:20:33;;;;;;;37.45;17.17;;;5.70;99.90;;;;;;5043826;28;20044;-82
2021/11/04 06:22:59;;;;;;;40.53;17.80;;;5.70;99.90;;;;;;5044475;28;20037;-82
2021/11/04 06:25:24;;;;;;;36.17;16.65;;;5.80;99.90;;;;;;5032256;28;20041;-82
2021/11/04 06:27:50;;;;;;;43.05;16.95;;;5.80;99.90;;;;;;5039102;28;20040;-85
2021/11/04 06:30:16;;;;;;;34.65;16.30;;;5.80;99.90;;;;;;5047025;28;20087;-82
2021/11/04 06:32:41;;;;;;;39.28;16.83;;;5.80;99.90;;;;;;5033258;28;20060;-83
2021/11/04 06:35:08;;;;;;;36.17;17.15;;;5.80;99.90;;;;;;5062673;28;20029;-82
2021/11/04 06:37:35;;;;;;;35.22;15.23;;;5.80;99.90;;;;;;5032371;28;20048;-83
2021/11/04 06:40:02;;;;;;;42.45;17.13;;;5.80;99.90;;;;;;5046544;28;20036;-84
2021/11/04 06:42:27;;;;;;;33.95;15.55;;;5.80;99.90;;;;;;5047200;28;20036;-84
2021/11/04 06:44:53;;;;;;;36.83;15.98;;;5.80;99.90;;;;;;5031894;28;20029;-84
2021/11/04 06:47:29;;;;;;;36.35;15.18;;;5.80;99.90;;;;;;5042408;28;20120;-84
2021/11/04 06:49:58;;;;;;;40.08;18.13;;;5.90;99.90;;;;;;5031019;28;20074;-83
2021/11/04 06:52:44;;;;;;;40.72;19.10;;;5.90;99.90;;;;;;5046620;28;20045;-85
2021/11/04 06:55:11;;;;;;;44.80;19.35;;;5.80;99.90;;;;;;5032847;28;20260;-84
2021/11/04 06:57:41;;;;;;;49.22;24.27;;;5.90;99.90;;;;;;5046528;28;20041;-83
2021/11/04 07:00:09;;;;;;;53.75;25.58;;;5.80;99.90;;;;;;5045781;28;20045;-84
2021/11/04 07:02:37;;;;;;;50.10;25.42;;;5.80;99.90;;;;;;5042997;28;20029;-84
2021/11/04 07:05:06;;;;;;;51.83;25.58;;;5.80;99.90;;;;;;5045669;28;20037;-85
2021/11/04 07:07:43;;;;;;;53.28;26.38;;;5.80;99.90;;;;;;5042457;28;20036;-84
2021/11/04 07:10:12;;;;;;;51.95;26.35;;;5.80;99.90;;;;;;5030887;28;20116;-83
2021/11/04 07:12:47;;;;;;;52.08;24.95;;;5.70;99.90;;;;;;5029230;28;20048;-83
2021/11/04 07:15:17;;;;;;;56.20;27.20;;;5.70;99.90;;;;;;5031503;28;20063;-83
2021/11/04 07:17:44;;;;;;;48.60;22.95;;;5.80;99.90;;;;;;5060583;28;20038;-84
2021/11/04 07:20:11;;;;;;;45.83;22.95;;;5.80;99.90;;;;;;5042488;28;20060;-84
2021/11/04 07:22:49;;;;;;;49.10;22.90;;;5.90;99.90;;;;;;5040475;28;20036;-83
2021/11/04 07:25:17;;;;;;;57.10;27.38;;;5.90;99.90;;;;;;5046330;28;20037;-83
2021/11/04 07:28:06;;;;;;;55.13;27.67;;;5.90;99.90;;;;;;5043012;28;20083;-83
2021/11/04 07:30:32;;;;;;;53.17;25.88;;;5.90;99.90;;;;;;5057903;28;20048;-85
2021/11/04 07:33:00;;;;;;;61.42;30.20;;;5.90;99.90;;;;;;5028148;28;20037;-82
2021/11/04 07:35:29;;;;;;;53.58;25.40;;;5.90;99.90;;;;;;5043073;28;20105;-82
2021/11/04 07:37:55;;;;;;;51.40;25.33;;;5.90;99.90;;;;;;5044690;28;20060;-83
2021/11/04 07:40:24;;;;;;;49.28;24.30;;;6.00;99.90;;;;;;5028613;28;20040;-83
2021/11/04 07:42:50;;;;;;;46.35;22.27;;;6.00;99.90;;;;;;5028394;28;20497;-83
2021/11/04 07:45:36;;;;;;;51.03;25.65;;;6.00;99.90;;;;;;5042498;28;20060;-83
2021/11/04 07:48:02;;;;;;;44.95;22.65;;;6.00;99.90;;;;;;4990430;28;20053;-83
2021/11/04 07:50:30;;;;;;;44.97;21.42;;;6.00;99.90;;;;;;4987473;28;20049;-83
2021/11/04 07:52:56;;;;;;;52.30;24.70;;;6.00;99.90;;;;;;5003909;28;20162;-86
2021/11/04 07:55:22;;;;;;;44.58;24.00;;;6.00;99.90;;;;;;4987459;28;20533;-83
2021/11/04 07:57:48;;;;;;;58.60;28.45;;;6.00;99.90;;;;;;4987538;28;20469;-84
2021/11/04 08:00:16;;;;;;;51.75;26.08;;;5.80;99.90;;;;;;4993041;28;20064;-83
2021/11/04 08:02:42;;;;;;;55.58;27.83;;;5.90;99.90;;;;;;5007334;28;20493;-85
2021/11/04 08:05:10;;;;;;;47.20;27.15;;;5.90;99.90;;;;;;5023333;28;20038;-83
2021/11/04 08:07:36;;;;;;;48.25;25.20;;;5.90;99.90;;;;;;5023439;28;20069;-84
2021/11/04 08:10:14;;;;;;;41.15;22.38;;;5.80;99.90;;;;;;5007003;28;20097;-82
2021/11/04 08:12:39;;;;;;;50.33;25.58;;;5.80;99.90;;;;;;5023207;28;20054;-84
2021/11/04 08:15:08;;;;;;;55.55;26.30;;;5.80;99.90;;;;;;4990473;28;20040;-84
2021/11/04 08:17:34;;;;;;;46.50;24.30;;;5.80;99.90;;;;;;5006748;28;20042;-84
2021/11/04 08:19:59;;;;;;;50.03;24.83;;;5.90;99.90;;;;;;5006956;28;20056;-83
2021/11/04 08:22:25;;;;;;;49.33;26.15;;;5.90;99.90;;;;;;5006950;28;20103;-83
2021/11/04 08:24:51;;;;;;;40.20;20.08;;;6.00;99.90;;;;;;5012249;28;20044;-84
2021/11/04 08:27:18;;;;;;;49.20;25.65;;;6.00;99.90;;;;;;5024647;28;20051;-83
2021/11/04 08:29:44;;;;;;;42.95;22.77;;;5.90;99.90;;;;;;5024006;28;20026;-83
2021/11/04 08:32:11;;;;;;;33.83;16.73;;;6.00;99.90;;;;;;5008811;28;20433;-83
2021/11/04 08:34:38;;;;;;;35.42;19.17;;;6.00;99.90;;;;;;5044826;28;20129;-83
2021/11/04 08:37:03;;;;;;;35.85;20.25;;;5.80;99.90;;;;;;5011211;28;20097;-83
2021/11/04 08:39:29;;;;;;;35.30;19.55;;;5.80;99.90;;;;;;5045440;28;20049;-83
2021/11/04 08:41:56;;;;;;;36.33;19.83;;;5.80;99.90;;;;;;5027222;28;20088;-84
2021/11/04 08:44:22;;;;;;;38.47;20.23;;;5.70;99.90;;;;;;5010462;28;20103;-84
2021/11/04 08:46:48;;;;;;;31.92;17.58;;;5.80;99.90;;;;;;5010572;28;20041;-83
2021/11/04 08:49:14;;;;;;;37.22;17.90;;;5.80;99.90;;;;;;5023675;28;20029;-84
2021/11/04 08:51:40;;;;;;;29.17;15.23;;;5.90;99.90;;;;;;5026751;28;20050;-85
2021/11/04 08:54:07;;;;;;;28.98;15.52;;;6.10;99.90;;;;;;5010215;28;20033;-84
2021/11/04 08:56:35;;;;;;;27.90;14.65;;;6.10;99.90;;;;;;5010485;28;20042;-84
2021/11/04 08:59:00;;;;;;;26.15;13.02;;;6.20;99.90;;;;;;5023784;28;20029;-84
2021/11/04 09:01:28;;;;;;;28.00;13.50;;;6.30;99.90;;;;;;5054467;28;20067;-83
2021/11/04 09:03:53;;;;;;;25.35;12.50;;;6.40;99.90;;;;;;5024422;28;20124;-83
2021/11/04 09:06:19;;;;;;;26.70;14.65;;;6.50;99.90;;;;;;5030963;28;20048;-84
2021/11/04 09:08:45;;;;;;;24.75;13.70;;;6.30;99.90;;;;;;5042944;28;20037;-84
2021/11/04 09:11:10;;;;;;;23.48;12.13;;;6.40;99.90;;;;;;5024016;28;20042;-84
2021/11/04 09:13:36;;;;;;;22.08;12.23;;;6.50;99.90;;;;;;5029203;28;20075;-85
2021/11/04 09:16:01;;;;;;;24.02;14.18;;;6.60;99.90;;;;;;5029587;28;20040;-82
2021/11/04 09:18:27;;;;;;;28.70;16.38;;;6.50;99.90;;;;;;5029449;28;20044;-84
2021/11/04 09:20:53;;;;;;;24.80;13.20;;;6.30;99.90;;;;;;5040837;28;20029;-84
2021/11/04 09:23:19;;;;;;;28.65;13.38;;;6.60;99.90;;;;;;5029244;28;20451;-83
2021/11/04 09:25:44;;;;;;;20.60;9.57;;;6.80;99.90;;;;;;5028675;28;20052;-84
2021/11/04 09:28:10;;;;;;;22.50;12.00;;;6.70;99.90;;;;;;5026979;28;20045;-83
2021/11/04 09:30:36;;;;;;;19.40;10.27;;;6.80;99.90;;;;;;5040240;28;20068;-83
2021/11/04 09:33:03;;;;;;;27.58;15.25;;;7.00;99.90;;;;;;5021004;28;20163;-84
2021/11/04 09:35:28;;;;;;;35.80;18.00;;;6.90;99.90;;;;;;5027286;28;20056;-85
2021/11/04 09:37:54;;;;;;;28.40;16.85;;;6.60;99.90;;;;;;5039666;28;20091;-85
2021/11/04 09:40:20;;;;;;;24.73;14.65;;;6.50;99.90;;;;;;5027737;28;20041;-84
2021/11/04 09:42:49;;;;;;;20.70;11.73;;;6.80;99.90;;;;;;5030614;28;20410;-84
2021/11/04 09:45:35;;;;;;;24.52;13.20;;;6.90;99.90;;;;;;5029062;28;20127;-84
2021/11/04 09:48:02;;;;;;;19.40;11.38;;;7.00;99.90;;;;;;5002145;28;20126;-83
2021/11/04 09:50:28;;;;;;;19.50;10.93;;;7.10;99.90;;;;;;4989626;28;20045;-83
2021/11/04 09:52:55;;;;;;;20.83;11.63;;;7.10;99.90;;;;;;4993069;28;20042;-83
2021/11/04 09:55:23;;;;;;;20.30;11.07;;;7.10;99.90;;;;;;4995401;28;20093;-83
2021/11/04 09:57:51;;;;;;;20.25;10.95;;;7.00;99.90;;;;;;4990987;28;20098;-83
2021/11/04 10:00:18;;;;;;;20.67;12.52;;;6.80;99.90;;;;;;4998053;28;20053;-83
2021/11/04 10:02:45;;;;;;;23.10;12.70;;;6.90;99.90;;;;;;5003185;28;20038;-83
2021/11/04 10:05:16;;;;;;;24.05;11.73;;;7.00;99.90;;;;;;4995148;28;20034;-83
2021/11/04 10:07:44;;;;;;;27.98;15.88;;;7.30;99.90;;;;;;4992877;28;20057;-83
2021/11/04 10:10:10;;;;;;;26.05;14.57;;;7.00;99.90;;;;;;4974380;28;20142;-82
2021/11/04 10:12:36;;;;;;;26.45;14.35;;;7.10;99.90;;;;;;4992689;28;20105;-83
2021/11/04 10:15:12;;;;;;;29.40;16.75;;;7.00;99.90;;;;;;5003251;28;20034;-83
2021/11/04 10:17:38;;;;;;;30.38;18.15;;;6.80;99.90;;;;;;4981947;28;20038;-83
2021/11/04 10:20:22;;;;;;;30.63;14.95;;;6.90;99.90;;;;;;5003508;28;20530;-83
2021/11/04 10:23:03;;;;;;;22.35;14.40;;;6.80;99.90;;;;;;4997239;28;20045;-83
2021/11/04 10:25:29;;;;;;;22.67;14.00;;;7.10;99.90;;;;;;5002770;28;20046;-83
2021/11/04 10:27:55;;;;;;;18.80;10.93;;;7.20;99.90;;;;;;5029720;28;20034;-83
2021/11/04 10:30:40;;;;;;;24.50;13.65;;;7.20;99.90;;;;;;5013177;28;20037;-83
2021/11/04 10:33:31;;;;;;;24.02;13.23;;;7.30;99.90;;;;;;5008970;28;20510;-83
2021/11/04 10:36:13;;;;;;;28.40;17.13;;;7.30;99.90;;;;;;5011949;28;20097;-83
2021/11/04 10:38:40;;;;;;;27.25;16.70;;;7.20;99.90;;;;;;5010558;28;20034;-83
2021/11/04 10:41:19;;;;;;;31.08;17.52;;;7.30;99.90;;;;;;5011901;28;20101;-83
2021/11/04 10:43:46;;;;;;;26.48;15.07;;;7.30;99.90;;;;;;5011815;28;20060;-83
2021/11/04 10:46:13;;;;;;;26.27;14.60;;;7.40;99.90;;;;;;5018038;28;20036;-83
2021/11/04 10:48:41;;;;;;;29.15;14.30;;;7.50;99.90;;;;;;5029004;28;20037;-84
2021/11/04 10:51:11;;;;;;;24.30;13.93;;;7.60;99.90;;;;;;5046334;28;20085;-83
2021/11/04 10:53:37;;;;;;;26.40;14.20;;;7.50;99.90;;;;;;5012805;28;20568;-83
2021/11/04 10:56:08;;;;;;;29.33;14.90;;;7.60;99.90;;;;;;5028918;28;20033;-83
2021/11/04 10:58:35;;;;;;;35.92;17.40;;;7.70;99.90;;;;;;5046794;28;20039;-83
2021/11/04 11:01:01;;;;;;;30.85;16.80;;;7.70;99.90;;;;;;5025718;28;20053;-83
2021/11/04 11:03:31;;;;;;;30.27;17.02;;;7.70;99.90;;;;;;5007091;28;20034;-83
2021/11/04 11:06:01;;;;;;;29.50;16.48;;;7.80;99.90;;;;;;5021874;28;20064;-82
2021/11/04 11:08:28;;;;;;;38.58;18.80;;;7.70;99.90;;;;;;5006999;28;20371;-84
2021/11/04 11:10:54;;;;;;;34.63;17.92;;;7.60;99.90;;;;;;5006972;28;20050;-83
2021/11/04 11:13:20;;;;;;;32.95;18.08;;;7.70;99.90;;;;;;5009726;28;20049;-83
2021/11/04 11:15:53;;;;;;;33.00;17.38;;;7.70;99.90;;;;;;5009338;28;20052;-83
2021/11/04 11:18:21;;;;;;;28.70;15.48;;;7.80;99.90;;;;;;5023036;28;20042;-83
2021/11/04 11:20:48;;;;;;;29.75;16.80;;;7.80;99.90;;;;;;5009367;28;20038;-83
2021/11/04 11:23:23;;;;;;;27.55;15.57;;;7.80;99.90;;;;;;5008801;28;20048;-83
2021/11/04 11:25:51;;;;;;;27.70;15.93;;;7.80;99.90;;;;;;5008968;28;20068;-83
2021/11/04 11:28:20;;;;;;;26.30;15.55;;;7.80;99.90;;;;;;5011330;28;20033;-84
2021/11/04 11:31:11;;;;;;;26.08;15.05;;;7.80;99.90;;;;;;5009104;28;20045;-83
2021/11/04 11:33:40;;;;;;;29.95;15.98;;;7.80;99.90;;;;;;5003611;28;20072;-83
2021/11/04 11:36:20;;;;;;;26.95;15.80;;;7.70;99.90;;;;;;5006387;28;20096;-83
2021/11/04 11:38:55;;;;;;;26.90;14.63;;;7.90;99.90;;;;;;5018995;28;20034;-84
2021/11/04 11:41:25;;;;;;;23.75;14.73;;;8.00;99.90;;;;;;5007482;28;20045;-83
2021/11/04 11:43:58;;;;;;;26.88;16.52;;;8.10;99.90;;;;;;5004483;28;20087;-84
2021/11/04 11:46:24;;;;;;;24.42;14.57;;;8.10;99.90;;;;;;5003821;28;20266;-84
2021/11/04 11:49:11;;;;;;;23.50;12.90;;;8.20;99.90;;;;;;5006163;28;20177;-84
2021/11/04 11:51:45;;;;;;;31.85;18.83;;;8.10;99.90;;;;;;5002602;28;20072;-83
2021/11/04 11:54:14;;;;;;;35.65;19.77;;;8.00;99.90;;;;;;5025542;28;20033;-83
2021/11/04 11:57:04;;;;;;;;;;;8.00;99.90;;;;;;5037574;28;20069;-82
2021/11/04 11:59:29;;;;;;;28.25;17.38;;;8.20;99.90;;;;;;5003063;28;20332;-83
2021/11/04 12:01:55;;;;;;;24.77;14.75;;;8.20;99.90;;;;;;5011051;28;20042;-83
2021/11/04 12:04:30;;;;;;;27.85;18.77;;;8.30;99.90;;;;;;5002640;28;20044;-83
2021/11/04 12:06:58;;;;;;;25.10;15.90;;;8.30;99.90;;;;;;5006002;28;20026;-83
2021/11/04 12:09:39;;;;;;;31.13;18.77;;;8.40;99.90;;;;;;5002748;28;20041;-83
2021/11/04 12:12:07;;;;;;;28.40;17.88;;;8.20;99.90;;;;;;5019462;28;20493;-84
2021/11/04 12:14:37;;;;;;;27.73;18.77;;;8.50;99.90;;;;;;5024679;28;20386;-82
2021/11/04 12:17:06;;;;;;;33.92;20.20;;;8.20;99.90;;;;;;5008390;28;20064;-83
2021/11/04 12:19:49;;;;;;;27.88;18.83;;;8.30;99.90;;;;;;5008498;28;20102;-84
2021/11/04 12:22:18;;;;;;;26.95;17.48;;;8.50;99.90;;;;;;5002917;28;20430;-84
2021/11/04 12:24:49;;;;;;;26.75;18.27;;;8.40;99.90;;;;;;5005840;28;20125;-84
2021/11/04 12:27:16;;;;;;;23.77;16.95;;;8.60;99.90;;;;;;5023698;28;20048;-83
2021/11/04 12:29:42;;;;;;;22.33;14.75;;;8.40;99.90;;;;;;5023208;28;20124;-84
2021/11/04 12:32:12;;;;;;;25.10;15.68;;;8.70;99.90;;;;;;5001810;28;20045;-84
2021/11/04 12:34:39;;;;;;;25.02;15.20;;;8.80;99.90;;;;;;5018917;28;20030;-84
2021/11/04 12:37:13;;;;;;;24.10;16.25;;;8.70;99.90;;;;;;5016982;28;20091;-84
2021/11/04 12:39:46;;;;;;;25.00;17.60;;;8.60;99.90;;;;;;5019210;28;20383;-84
2021/11/04 12:42:16;;;;;;;23.30;15.07;;;8.70;99.90;;;;;;5009180;28;20052;-84